sensor_id;sensor_type;location;lat;lon;timestamp;P1;durP1;ratioP1;P2;durP2;ratioP2
1436;SDS011;712;51.026;13.792;2022-11-20T08:19:37;38.13;;;24.77;;
1436;SDS011;712;51.026;13.792;2022-11-20T08:22:02;37.53;;;24.83;;
1436;SDS011;712;51.026;13.792;2022-11-20T08:24:27;34.00;;;26.60;;
1436;SDS011;712;51.026;13.792;2022-11-20T08:26:52;36.00;;;26.30;;
1436;SDS011;712;51.026;13.792;2022-11-20T08:29:18;35.80;;;26.83;;
1436;SDS011;712;51.026;13.792;2022-11-20T08:31:43;36.70;;;27.80;;
1436;SDS011;712;51.026;13.792;2022-11-20T08:34:08;40.17;;;30.43;;
1436;SDS011;712;51.026;13.792;2022-11-20T08:36:33;39.17;;;27.97;;
1436;SDS011;712;51.026;13.792;2022-11-20T08:38:59;36.00;;;28.83;;
1436;SDS011;712;51.026;13.792;2022-11-20T08:41:25;38.23;;;27.60;;
1436;SDS011;712;51.026;13.792;2022-11-20T08:43:51;37.53;;;28.00;;
1436;SDS011;712;51.026;13.792;2022-11-20T08:46:17;36.17;;;29.10;;
1436;SDS011;712;51.026;13.792;2022-11-20T08:48:42;36.23;;;28.83;;
1436;SDS011;712;51.026;13.792;2022-11-20T08:51:07;38.53;;;30.07;;
1436;SDS011;712;51.026;13.792;2022-11-20T08:53:32;34.43;;;27.07;;
1436;SDS011;712;51.026;13.792;2022-11-20T08:55:58;37.17;;;28.03;;
1436;SDS011;712;51.026;13.792;2022-11-20T08:58:23;36.43;;;27.63;;
1436;SDS011;712;51.026;13.792;2022-11-20T09:00:48;36.20;;;27.40;;
1436;SDS011;712;51.026;13.792;2022-11-20T09:03:13;33.40;;;26.00;;
1436;SDS011;712;51.026;13.792;2022-11-20T09:05:39;35.47;;;26.90;;
1436;SDS011;712;51.026;13.792;2022-11-20T09:08:04;33.20;;;26.87;;
1436;SDS011;712;51.026;13.792;2022-11-20T09:10:29;34.07;;;26.40;;
1436;SDS011;712;51.026;13.792;2022-11-20T09:12:54;34.13;;;26.03;;
1436;SDS011;712;51.026;13.792;2022-11-20T09:15:20;32.60;;;25.83;;
1436;SDS011;712;51.026;13.792;2022-11-20T09:20:17;32.73;;;25.20;;
1436;SDS011;712;51.026;13.792;2022-11-20T09:22:42;33.37;;;25.30;;
1436;SDS011;712;51.026;13.792;2022-11-20T09:25:07;29.70;;;25.77;;
1436;SDS011;712;51.026;13.792;2022-11-20T09:27:32;32.07;;;25.20;;
1436;SDS011;712;51.026;13.792;2022-11-20T09:29:57;27.70;;;23.17;;
1436;SDS011;712;51.026;13.792;2022-11-20T09:32:23;29.63;;;23.27;;
1436;SDS011;712;51.026;13.792;2022-11-20T09:34:48;27.97;;;22.50;;
1436;SDS011;712;51.026;13.792;2022-11-20T09:37:13;26.40;;;22.60;;
1436;SDS011;712;51.026;13.792;2022-11-20T09:39:38;31.43;;;23.63;;
1436;SDS011;712;51.026;13.792;2022-11-20T09:42:10;33.47;;;23.07;;
1436;SDS011;712;51.026;13.792;2022-11-20T09:44:48;27.63;;;24.00;;
1436;SDS011;712;51.026;13.792;2022-11-20T09:47:17;26.93;;;22.60;;
1436;SDS011;712;51.026;13.792;2022-11-20T09:49:56;32.97;;;23.83;;
1436;SDS011;712;51.026;13.792;2022-11-20T09:52:47;25.37;;;21.80;;
1436;SDS011;712;51.026;13.792;2022-11-20T09:55:15;24.60;;;21.70;;
1436;SDS011;712;51.026;13.792;2022-11-20T09:57:42;23.13;;;20.17;;
1436;SDS011;712;51.026;13.792;2022-11-20T10:00:12;23.97;;;20.60;;
1436;SDS011;712;51.026;13.792;2022-11-20T10:05:13;24.73;;;20.03;;
1436;SDS011;712;51.026;13.792;2022-11-20T10:07:45;25.00;;;20.17;;
1436;SDS011;712;51.026;13.792;2022-11-20T10:10:20;21.80;;;18.07;;
1436;SDS011;712;51.026;13.792;2022-11-20T10:13:35;21.87;;;18.83;;
1436;SDS011;712;51.026;13.792;2022-11-20T10:15:53;22.97;;;18.30;;
1436;SDS011;712;51.026;13.792;2022-11-20T10:21:04;19.80;;;17.53;;
1436;SDS011;712;51.026;13.792;2022-11-20T10:26:18;20.67;;;18.50;;
1436;SDS011;712;51.026;13.792;2022-11-20T10:28:48;22.70;;;19.13;;
1436;SDS011;712;51.026;13.792;2022-11-20T10:33:52;22.07;;;19.17;;
1436;SDS011;712;51.026;13.792;2022-11-20T10:36:19;23.17;;;19.10;;
1436;SDS011;712;51.026;13.792;2022-11-20T10:38:50;19.37;;;17.33;;
1436;SDS011;712;51.026;13.792;2022-11-20T10:41:24;20.27;;;18.13;;
1436;SDS011;712;51.026;13.792;2022-11-20T10:46:22;23.60;;;19.40;;
1436;SDS011;712;51.026;13.792;2022-11-20T10:48:48;19.90;;;17.67;;
1436;SDS011;712;51.026;13.792;2022-11-20T10:56:31;20.63;;;18.13;;
1436;SDS011;712;51.026;13.792;2022-11-20T11:01:24;17.88;;;15.98;;
1436;SDS011;712;51.026;13.792;2022-11-20T11:03:51;18.17;;;16.27;;
1436;SDS011;712;51.026;13.792;2022-11-20T11:08:45;17.43;;;15.70;;
1436;SDS011;712;51.026;13.792;2022-11-20T11:13:37;18.17;;;16.38;;
1436;SDS011;712;51.026;13.792;2022-11-20T11:16:02;19.45;;;16.27;;
1436;SDS011;712;51.026;13.792;2022-11-20T11:18:28;16.67;;;14.93;;
1436;SDS011;712;51.026;13.792;2022-11-20T11:20:55;16.57;;;14.53;;
1436;SDS011;712;51.026;13.792;2022-11-20T11:23:40;17.43;;;15.63;;
1436;SDS011;712;51.026;13.792;2022-11-20T11:26:06;16.40;;;14.77;;
1436;SDS011;712;51.026;13.792;2022-11-20T11:28:32;16.37;;;14.63;;
1436;SDS011;712;51.026;13.792;2022-11-20T11:30:57;18.90;;;17.07;;
1436;SDS011;712;51.026;13.792;2022-11-20T11:33:30;17.30;;;15.60;;
1436;SDS011;712;51.026;13.792;2022-11-20T11:35:59;17.50;;;15.77;;
1436;SDS011;712;51.026;13.792;2022-11-20T11:40:56;17.87;;;16.17;;
1436;SDS011;712;51.026;13.792;2022-11-20T11:43:25;16.80;;;15.13;;
1436;SDS011;712;51.026;13.792;2022-11-20T11:48:54;17.13;;;15.37;;
1436;SDS011;712;51.026;13.792;2022-11-20T11:51:20;17.10;;;15.50;;
1436;SDS011;712;51.026;13.792;2022-11-20T11:53:45;15.40;;;13.90;;
1436;SDS011;712;51.026;13.792;2022-11-20T11:56:10;17.17;;;15.57;;
1436;SDS011;712;51.026;13.792;2022-11-20T11:58:44;15.70;;;14.10;;
1436;SDS011;712;51.026;13.792;2022-11-20T12:01:26;17.33;;;15.63;;
1436;SDS011;712;51.026;13.792;2022-11-20T12:06:38;11.47;;;10.47;;
1436;SDS011;712;51.026;13.792;2022-11-20T12:09:05;11.27;;;10.30;;
1436;SDS011;712;51.026;13.792;2022-11-20T12:14:00;9.50;;;8.68;;
1436;SDS011;712;51.026;13.792;2022-11-20T12:16:28;11.93;;;10.73;;
1436;SDS011;712;51.026;13.792;2022-11-20T12:18:55;12.57;;;11.37;;
1436;SDS011;712;51.026;13.792;2022-11-20T12:26:28;13.27;;;11.93;;
1436;SDS011;712;51.026;13.792;2022-11-20T12:29:02;12.87;;;11.60;;
1436;SDS011;712;51.026;13.792;2022-11-20T12:31:37;12.20;;;11.03;;
1436;SDS011;712;51.026;13.792;2022-11-20T12:34:09;12.60;;;11.30;;
1436;SDS011;712;51.026;13.792;2022-11-20T12:36:44;12.50;;;11.30;;
1436;SDS011;712;51.026;13.792;2022-11-20T12:39:15;13.00;;;11.40;;
1436;SDS011;712;51.026;13.792;2022-11-20T12:41:53;12.70;;;11.50;;
1436;SDS011;712;51.026;13.792;2022-11-20T12:45:02;14.13;;;12.73;;
1436;SDS011;712;51.026;13.792;2022-11-20T12:47:39;14.70;;;13.20;;
1436;SDS011;712;51.026;13.792;2022-11-20T12:50:22;14.00;;;12.70;;
1436;SDS011;712;51.026;13.792;2022-11-20T12:52:56;14.03;;;12.63;;
1436;SDS011;712;51.026;13.792;2022-11-20T12:55:32;15.80;;;14.27;;
1436;SDS011;712;51.026;13.792;2022-11-20T12:58:04;14.27;;;12.77;;
1436;SDS011;712;51.026;13.792;2022-11-20T13:00:31;13.57;;;12.30;;
1436;SDS011;712;51.026;13.792;2022-11-20T13:03:21;14.80;;;13.37;;
1436;SDS011;712;51.026;13.792;2022-11-20T13:08:21;14.38;;;12.98;;
1436;SDS011;712;51.026;13.792;2022-11-20T13:13:14;14.68;;;13.15;;
1436;SDS011;712;51.026;13.792;2022-11-20T13:18:08;14.67;;;13.23;;
1436;SDS011;712;51.026;13.792;2022-11-20T13:20:34;14.03;;;12.73;;
1436;SDS011;712;51.026;13.792;2022-11-20T13:23:00;13.57;;;12.30;;
1436;SDS011;712;51.026;13.792;2022-11-20T13:25:29;14.97;;;13.57;;
1436;SDS011;712;51.026;13.792;2022-11-20T13:27:55;13.87;;;12.60;;
1436;SDS011;712;51.026;13.792;2022-11-20T13:30:24;13.50;;;12.20;;
1436;SDS011;712;51.026;13.792;2022-11-20T13:32:54;14.83;;;12.97;;
1436;SDS011;712;51.026;13.792;2022-11-20T13:35:24;14.40;;;13.03;;
1436;SDS011;712;51.026;13.792;2022-11-20T13:37:58;16.50;;;13.50;;
1436;SDS011;712;51.026;13.792;2022-11-20T13:40:24;13.63;;;12.43;;
1436;SDS011;712;51.026;13.792;2022-11-20T13:43:00;15.93;;;14.43;;
1436;SDS011;712;51.026;13.792;2022-11-20T13:45:30;12.80;;;11.50;;
1436;SDS011;712;51.026;13.792;2022-11-20T13:47:56;13.37;;;11.97;;
1436;SDS011;712;51.026;13.792;2022-11-20T13:50:27;13.70;;;12.30;;
1436;SDS011;712;51.026;13.792;2022-11-20T13:53:05;14.83;;;13.43;;
1436;SDS011;712;51.026;13.792;2022-11-20T13:55:36;13.63;;;12.43;;
1436;SDS011;712;51.026;13.792;2022-11-20T13:58:07;13.27;;;11.90;;
1436;SDS011;712;51.026;13.792;2022-11-20T14:00:43;11.70;;;10.60;;
1436;SDS011;712;51.026;13.792;2022-11-20T14:03:09;10.83;;;9.83;;
1436;SDS011;712;51.026;13.792;2022-11-20T14:05:45;11.33;;;10.33;;
1436;SDS011;712;51.026;13.792;2022-11-20T14:08:14;10.23;;;9.33;;
1436;SDS011;712;51.026;13.792;2022-11-20T14:10:42;11.50;;;10.43;;
1436;SDS011;712;51.026;13.792;2022-11-20T14:13:15;11.50;;;10.33;;
1436;SDS011;712;51.026;13.792;2022-11-20T14:15:42;10.70;;;9.70;;
1436;SDS011;712;51.026;13.792;2022-11-20T14:18:11;11.20;;;10.07;;
1436;SDS011;712;51.026;13.792;2022-11-20T14:20:37;9.50;;;8.70;;
1436;SDS011;712;51.026;13.792;2022-11-20T14:23:02;9.83;;;8.93;;
1436;SDS011;712;51.026;13.792;2022-11-20T14:25:30;10.40;;;9.40;;
1436;SDS011;712;51.026;13.792;2022-11-20T14:27:57;10.40;;;9.40;;
1436;SDS011;712;51.026;13.792;2022-11-20T14:30:23;9.80;;;8.90;;
1436;SDS011;712;51.026;13.792;2022-11-20T14:32:49;10.50;;;9.60;;
1436;SDS011;712;51.026;13.792;2022-11-20T14:35:25;9.57;;;8.77;;
1436;SDS011;712;51.026;13.792;2022-11-20T14:37:51;10.70;;;9.70;;
1436;SDS011;712;51.026;13.792;2022-11-20T14:42:48;10.70;;;9.73;;
1436;SDS011;712;51.026;13.792;2022-11-20T14:45:13;11.97;;;10.80;;
1436;SDS011;712;51.026;13.792;2022-11-20T14:47:38;10.10;;;9.20;;
1436;SDS011;712;51.026;13.792;2022-11-20T14:50:07;10.50;;;9.50;;
1436;SDS011;712;51.026;13.792;2022-11-20T14:52:37;11.13;;;10.07;;
1436;SDS011;712;51.026;13.792;2022-11-20T14:55:02;12.47;;;11.33;;
1436;SDS011;712;51.026;13.792;2022-11-20T14:57:34;11.60;;;10.60;;
1436;SDS011;712;51.026;13.792;2022-11-20T15:00:03;12.70;;;11.40;;
1436;SDS011;712;51.026;13.792;2022-11-20T15:02:29;11.83;;;10.70;;
1436;SDS011;712;51.026;13.792;2022-11-20T15:04:58;11.17;;;10.13;;
1436;SDS011;712;51.026;13.792;2022-11-20T15:09:59;11.03;;;10.03;;
1436;SDS011;712;51.026;13.792;2022-11-20T15:12:24;12.70;;;11.40;;
1436;SDS011;712;51.026;13.792;2022-11-20T15:14:49;12.93;;;11.63;;
1436;SDS011;712;51.026;13.792;2022-11-20T15:17:14;12.70;;;11.50;;
1436;SDS011;712;51.026;13.792;2022-11-20T15:19:39;12.53;;;11.33;;
1436;SDS011;712;51.026;13.792;2022-11-20T15:22:07;12.67;;;11.43;;
1436;SDS011;712;51.026;13.792;2022-11-20T15:24:37;12.60;;;11.37;;
1436;SDS011;712;51.026;13.792;2022-11-20T15:27:02;12.70;;;11.40;;
1436;SDS011;712;51.026;13.792;2022-11-20T15:29:27;13.30;;;11.63;;
1436;SDS011;712;51.026;13.792;2022-11-20T15:31:53;12.53;;;11.20;;
1436;SDS011;712;51.026;13.792;2022-11-20T15:34:19;14.10;;;12.77;;
1436;SDS011;712;51.026;13.792;2022-11-20T15:36:44;12.50;;;11.30;;
1436;SDS011;712;51.026;13.792;2022-11-20T15:39:09;13.63;;;12.23;;
1436;SDS011;712;51.026;13.792;2022-11-20T15:41:35;13.03;;;11.73;;
1436;SDS011;712;51.026;13.792;2022-11-20T15:44:00;14.13;;;11.83;;
1436;SDS011;712;51.026;13.792;2022-11-20T15:46:26;13.63;;;12.10;;
1436;SDS011;712;51.026;13.792;2022-11-20T15:48:56;14.50;;;11.73;;
1436;SDS011;712;51.026;13.792;2022-11-20T15:51:24;13.33;;;11.83;;
1436;SDS011;712;51.026;13.792;2022-11-20T15:53:51;13.30;;;11.90;;
1436;SDS011;712;51.026;13.792;2022-11-20T15:56:16;15.88;;;14.27;;
1436;SDS011;712;51.026;13.792;2022-11-20T15:58:41;17.10;;;15.13;;
1436;SDS011;712;51.026;13.792;2022-11-20T16:01:10;15.47;;;13.43;;
1436;SDS011;712;51.026;13.792;2022-11-20T16:03:35;16.63;;;14.27;;
1436;SDS011;712;51.026;13.792;2022-11-20T16:06:00;16.50;;;14.50;;
1436;SDS011;712;51.026;13.792;2022-11-20T16:08:26;15.15;;;13.55;;
1436;SDS011;712;51.026;13.792;2022-11-20T16:10:51;13.30;;;11.23;;
1436;SDS011;712;51.026;13.792;2022-11-20T16:13:16;15.63;;;13.55;;
1436;SDS011;712;51.026;13.792;2022-11-20T16:16:02;14.10;;;12.60;;
1436;SDS011;712;51.026;13.792;2022-11-20T16:18:29;16.80;;;15.00;;
1436;SDS011;712;51.026;13.792;2022-11-20T16:20:55;16.03;;;14.00;;
1436;SDS011;712;51.026;13.792;2022-11-20T16:23:20;14.93;;;13.07;;
1436;SDS011;712;51.026;13.792;2022-11-20T16:25:46;15.10;;;13.50;;
1436;SDS011;712;51.026;13.792;2022-11-20T16:28:11;17.73;;;14.40;;
1436;SDS011;712;51.026;13.792;2022-11-20T16:30:37;16.50;;;14.70;;
1436;SDS011;712;51.026;13.792;2022-11-20T16:33:02;15.73;;;14.03;;
1436;SDS011;712;51.026;13.792;2022-11-20T16:35:28;18.50;;;14.87;;
1436;SDS011;712;51.026;13.792;2022-11-20T16:37:54;15.10;;;13.50;;
1436;SDS011;712;51.026;13.792;2022-11-20T16:40:19;19.20;;;15.83;;
1436;SDS011;712;51.026;13.792;2022-11-20T16:42:44;17.43;;;15.47;;
1436;SDS011;712;51.026;13.792;2022-11-20T16:45:09;18.57;;;15.03;;
1436;SDS011;712;51.026;13.792;2022-11-20T16:47:35;18.93;;;16.10;;
1436;SDS011;712;51.026;13.792;2022-11-20T16:50:00;18.30;;;15.63;;
1436;SDS011;712;51.026;13.792;2022-11-20T16:52:26;19.53;;;17.43;;
1436;SDS011;712;51.026;13.792;2022-11-20T16:54:51;16.57;;;14.80;;
1436;SDS011;712;51.026;13.792;2022-11-20T16:57:16;17.40;;;15.57;;
1436;SDS011;712;51.026;13.792;2022-11-20T16:59:41;17.43;;;15.60;;
1436;SDS011;712;51.026;13.792;2022-11-20T17:02:08;19.73;;;16.23;;
1436;SDS011;712;51.026;13.792;2022-11-20T17:04:33;19.73;;;17.73;;
1436;SDS011;712;51.026;13.792;2022-11-20T17:06:59;21.17;;;18.80;;
1436;SDS011;712;51.026;13.792;2022-11-20T17:09:24;18.40;;;16.50;;
1436;SDS011;712;51.026;13.792;2022-11-20T17:11:49;22.87;;;19.20;;
1436;SDS011;712;51.026;13.792;2022-11-20T17:14:15;19.60;;;17.60;;
1436;SDS011;712;51.026;13.792;2022-11-20T17:16:40;19.90;;;17.33;;
1436;SDS011;712;51.026;13.792;2022-11-20T17:19:05;20.00;;;17.90;;
1436;SDS011;712;51.026;13.792;2022-11-20T17:21:31;21.60;;;19.40;;
1436;SDS011;712;51.026;13.792;2022-11-20T17:23:59;24.20;;;19.10;;
1436;SDS011;712;51.026;13.792;2022-11-20T17:26:25;21.20;;;18.67;;
1436;SDS011;712;51.026;13.792;2022-11-20T17:28:53;21.90;;;18.20;;
1436;SDS011;712;51.026;13.792;2022-11-20T17:31:18;20.23;;;18.13;;
1436;SDS011;712;51.026;13.792;2022-11-20T17:33:44;22.87;;;20.33;;
1436;SDS011;712;51.026;13.792;2022-11-20T17:36:10;21.47;;;19.27;;
1436;SDS011;712;51.026;13.792;2022-11-20T17:38:35;22.03;;;19.60;;
1436;SDS011;712;51.026;13.792;2022-11-20T17:41:04;22.00;;;19.60;;
1436;SDS011;712;51.026;13.792;2022-11-20T17:43:30;22.53;;;19.60;;
1436;SDS011;712;51.026;13.792;2022-11-20T17:45:56;22.70;;;19.10;;
1436;SDS011;712;51.026;13.792;2022-11-20T17:48:21;24.27;;;20.43;;
1436;SDS011;712;51.026;13.792;2022-11-20T17:50:46;25.73;;;20.53;;
1436;SDS011;712;51.026;13.792;2022-11-20T17:53:11;24.67;;;21.40;;
1436;SDS011;712;51.026;13.792;2022-11-20T17:55:37;22.67;;;19.30;;
1436;SDS011;712;51.026;13.792;2022-11-20T17:58:20;23.10;;;19.80;;
1436;SDS011;712;51.026;13.792;2022-11-20T18:00:45;21.17;;;18.90;;
1436;SDS011;712;51.026;13.792;2022-11-20T18:03:10;22.07;;;19.27;;
1436;SDS011;712;51.026;13.792;2022-11-20T18:05:36;22.60;;;18.80;;
1436;SDS011;712;51.026;13.792;2022-11-20T18:08:01;23.20;;;20.70;;
1436;SDS011;712;51.026;13.792;2022-11-20T18:10:28;21.90;;;19.13;;
1436;SDS011;712;51.026;13.792;2022-11-20T18:12:53;26.30;;;22.13;;
1436;SDS011;712;51.026;13.792;2022-11-20T18:15:18;23.60;;;20.23;;
1436;SDS011;712;51.026;13.792;2022-11-20T18:17:43;26.60;;;21.67;;
1436;SDS011;712;51.026;13.792;2022-11-20T18:20:09;23.93;;;21.30;;
1436;SDS011;712;51.026;13.792;2022-11-20T18:22:34;25.50;;;21.73;;
1436;SDS011;712;51.026;13.792;2022-11-20T18:24:59;38.85;;;30.42;;
1436;SDS011;712;51.026;13.792;2022-11-20T18:27:24;31.03;;;24.53;;
1436;SDS011;712;51.026;13.792;2022-11-20T18:29:50;26.90;;;22.40;;
1436;SDS011;712;51.026;13.792;2022-11-20T18:32:18;29.47;;;21.93;;
1436;SDS011;712;51.026;13.792;2022-11-20T18:34:43;29.30;;;21.67;;
1436;SDS011;712;51.026;13.792;2022-11-20T18:37:09;29.17;;;23.77;;
1436;SDS011;712;51.026;13.792;2022-11-20T18:39:35;25.43;;;22.47;;
1436;SDS011;712;51.026;13.792;2022-11-20T18:42:00;31.00;;;26.30;;
1436;SDS011;712;51.026;13.792;2022-11-20T18:44:44;29.13;;;24.10;;
1436;SDS011;712;51.026;13.792;2022-11-20T18:47:36;27.80;;;21.80;;
1436;SDS011;712;51.026;13.792;2022-11-20T18:50:03;29.23;;;23.80;;
1436;SDS011;712;51.026;13.792;2022-11-20T18:52:41;30.10;;;24.47;;
1436;SDS011;712;51.026;13.792;2022-11-20T18:55:08;34.07;;;23.60;;
1436;SDS011;712;51.026;13.792;2022-11-20T18:57:34;30.17;;;22.90;;
1436;SDS011;712;51.026;13.792;2022-11-20T18:59:59;31.00;;;24.50;;
1436;SDS011;712;51.026;13.792;2022-11-20T19:02:25;36.80;;;30.17;;
1436;SDS011;712;51.026;13.792;2022-11-20T19:04:50;35.40;;;27.07;;
1436;SDS011;712;51.026;13.792;2022-11-20T19:07:15;29.37;;;25.07;;
1436;SDS011;712;51.026;13.792;2022-11-20T19:09:41;34.03;;;27.50;;
1436;SDS011;712;51.026;13.792;2022-11-20T19:12:07;32.13;;;26.80;;
1436;SDS011;712;51.026;13.792;2022-11-20T19:14:32;31.00;;;24.40;;
1436;SDS011;712;51.026;13.792;2022-11-20T19:16:57;25.03;;;22.27;;
1436;SDS011;712;51.026;13.792;2022-11-20T19:19:23;28.45;;;25.00;;
1436;SDS011;712;51.026;13.792;2022-11-20T19:21:48;28.73;;;25.53;;
1436;SDS011;712;51.026;13.792;2022-11-20T19:24:13;27.00;;;23.57;;
1436;SDS011;712;51.026;13.792;2022-11-20T19:26:38;27.03;;;23.40;;
1436;SDS011;712;51.026;13.792;2022-11-20T19:29:04;30.47;;;23.87;;
1436;SDS011;712;51.026;13.792;2022-11-20T19:31:29;27.43;;;22.80;;
1436;SDS011;712;51.026;13.792;2022-11-20T19:33:57;28.67;;;25.03;;
1436;SDS011;712;51.026;13.792;2022-11-20T19:36:26;26.87;;;23.23;;
1436;SDS011;712;51.026;13.792;2022-11-20T19:38:52;28.33;;;23.50;;
1436;SDS011;712;51.026;13.792;2022-11-20T19:41:18;31.53;;;25.50;;
1436;SDS011;712;51.026;13.792;2022-11-20T19:43:44;30.73;;;25.50;;
1436;SDS011;712;51.026;13.792;2022-11-20T19:46:13;27.97;;;24.73;;
1436;SDS011;712;51.026;13.792;2022-11-20T19:48:38;34.63;;;26.43;;
1436;SDS011;712;51.026;13.792;2022-11-20T19:51:11;30.33;;;24.13;;
1436;SDS011;712;51.026;13.792;2022-11-20T19:53:37;27.80;;;24.13;;
1436;SDS011;712;51.026;13.792;2022-11-20T19:56:02;29.70;;;24.92;;
1436;SDS011;712;51.026;13.792;2022-11-20T19:58:27;32.23;;;24.80;;
1436;SDS011;712;51.026;13.792;2022-11-20T20:00:53;30.30;;;26.00;;
1436;SDS011;712;51.026;13.792;2022-11-20T20:03:18;32.73;;;26.13;;
1436;SDS011;712;51.026;13.792;2022-11-20T20:05:43;27.40;;;22.63;;
1436;SDS011;712;51.026;13.792;2022-11-20T20:08:08;25.63;;;22.30;;
1436;SDS011;712;51.026;13.792;2022-11-20T20:10:34;27.20;;;23.17;;
1436;SDS011;712;51.026;13.792;2022-11-20T20:12:59;26.97;;;24.07;;
1436;SDS011;712;51.026;13.792;2022-11-20T20:15:24;29.67;;;23.90;;
1436;SDS011;712;51.026;13.792;2022-11-20T20:17:52;30.93;;;24.20;;
1436;SDS011;712;51.026;13.792;2022-11-20T20:20:18;25.97;;;22.93;;
1436;SDS011;712;51.026;13.792;2022-11-20T20:22:44;26.70;;;23.47;;
1436;SDS011;712;51.026;13.792;2022-11-20T20:25:09;26.73;;;23.23;;
1436;SDS011;712;51.026;13.792;2022-11-20T20:27:34;29.30;;;23.20;;
1436;SDS011;712;51.026;13.792;2022-11-20T20:30:01;29.07;;;23.53;;
1436;SDS011;712;51.026;13.792;2022-11-20T20:32:29;28.63;;;24.00;;
1436;SDS011;712;51.026;13.792;2022-11-20T20:34:54;27.47;;;21.10;;
1436;SDS011;712;51.026;13.792;2022-11-20T20:37:20;27.03;;;22.73;;
1436;SDS011;712;51.026;13.792;2022-11-20T20:39:45;30.57;;;22.13;;
1436;SDS011;712;51.026;13.792;2022-11-20T20:42:10;25.33;;;21.90;;
1436;SDS011;712;51.026;13.792;2022-11-20T20:44:35;26.97;;;22.87;;
1436;SDS011;712;51.026;13.792;2022-11-20T20:47:19;27.70;;;22.50;;
1436;SDS011;712;51.026;13.792;2022-11-20T20:49:44;28.90;;;22.57;;
1436;SDS011;712;51.026;13.792;2022-11-20T20:52:09;29.80;;;23.03;;
1436;SDS011;712;51.026;13.792;2022-11-20T20:54:34;31.10;;;24.47;;
1436;SDS011;712;51.026;13.792;2022-11-20T20:57:00;32.87;;;24.80;;
1436;SDS011;712;51.026;13.792;2022-11-20T20:59:25;29.33;;;24.60;;
1436;SDS011;712;51.026;13.792;2022-11-20T21:01:50;28.80;;;23.80;;
1436;SDS011;712;51.026;13.792;2022-11-20T21:04:15;28.05;;;23.65;;
1436;SDS011;712;51.026;13.792;2022-11-20T21:06:40;32.93;;;24.23;;
1436;SDS011;712;51.026;13.792;2022-11-20T21:09:05;30.50;;;23.67;;
1436;SDS011;712;51.026;13.792;2022-11-20T21:11:31;31.77;;;24.93;;
1436;SDS011;712;51.026;13.792;2022-11-20T21:13:56;33.73;;;25.30;;
1436;SDS011;712;51.026;13.792;2022-11-20T21:16:21;30.83;;;25.53;;
1436;SDS011;712;51.026;13.792;2022-11-20T21:18:46;31.47;;;24.10;;
1436;SDS011;712;51.026;13.792;2022-11-20T21:21:12;32.40;;;23.60;;
1436;SDS011;712;51.026;13.792;2022-11-20T21:23:57;31.40;;;24.67;;
1436;SDS011;712;51.026;13.792;2022-11-20T21:26:22;35.60;;;24.87;;
1436;SDS011;712;51.026;13.792;2022-11-20T21:28:47;31.63;;;24.80;;
1436;SDS011;712;51.026;13.792;2022-11-20T21:31:20;36.40;;;26.53;;
1436;SDS011;712;51.026;13.792;2022-11-20T21:33:46;34.33;;;25.17;;
1436;SDS011;712;51.026;13.792;2022-11-20T21:36:13;38.37;;;26.00;;
1436;SDS011;712;51.026;13.792;2022-11-20T21:38:39;31.20;;;24.80;;
1436;SDS011;712;51.026;13.792;2022-11-20T21:41:05;32.43;;;25.93;;
1436;SDS011;712;51.026;13.792;2022-11-20T21:43:30;29.50;;;24.50;;
1436;SDS011;712;51.026;13.792;2022-11-20T21:46:03;33.33;;;25.33;;
1436;SDS011;712;51.026;13.792;2022-11-20T21:48:29;32.50;;;25.03;;
1436;SDS011;712;51.026;13.792;2022-11-20T21:50:55;33.80;;;25.70;;
1436;SDS011;712;51.026;13.792;2022-11-20T21:53:20;33.13;;;26.23;;
1436;SDS011;712;51.026;13.792;2022-11-20T21:55:51;30.20;;;24.50;;
1436;SDS011;712;51.026;13.792;2022-11-20T21:58:17;30.53;;;23.90;;
1436;SDS011;712;51.026;13.792;2022-11-20T22:00:42;34.47;;;26.40;;
1436;SDS011;712;51.026;13.792;2022-11-20T22:03:07;35.80;;;26.10;;
1436;SDS011;712;51.026;13.792;2022-11-20T22:05:32;34.43;;;25.13;;
1436;SDS011;712;51.026;13.792;2022-11-20T22:07:57;32.57;;;25.23;;
1436;SDS011;712;51.026;13.792;2022-11-20T22:10:22;30.40;;;23.70;;
1436;SDS011;712;51.026;13.792;2022-11-20T22:12:48;29.87;;;24.63;;
1436;SDS011;712;51.026;13.792;2022-11-20T22:15:13;35.13;;;25.47;;
1436;SDS011;712;51.026;13.792;2022-11-20T22:17:38;36.77;;;25.47;;
1436;SDS011;712;51.026;13.792;2022-11-20T22:20:41;32.30;;;24.43;;
1436;SDS011;712;51.026;13.792;2022-11-20T22:23:07;33.10;;;25.23;;
1436;SDS011;712;51.026;13.792;2022-11-20T22:25:32;34.88;;;26.15;;
1436;SDS011;712;51.026;13.792;2022-11-20T22:27:57;32.80;;;25.63;;
1436;SDS011;712;51.026;13.792;2022-11-20T22:30:22;32.03;;;25.03;;
1436;SDS011;712;51.026;13.792;2022-11-20T22:32:48;37.00;;;25.27;;
1436;SDS011;712;51.026;13.792;2022-11-20T22:35:13;31.70;;;25.53;;
1436;SDS011;712;51.026;13.792;2022-11-20T22:37:39;34.57;;;28.10;;
1436;SDS011;712;51.026;13.792;2022-11-20T22:40:04;32.17;;;25.60;;
1436;SDS011;712;51.026;13.792;2022-11-20T22:42:29;36.40;;;28.30;;
1436;SDS011;712;51.026;13.792;2022-11-20T22:44:54;37.28;;;27.25;;
1436;SDS011;712;51.026;13.792;2022-11-20T22:47:19;31.73;;;25.37;;
1436;SDS011;712;51.026;13.792;2022-11-20T22:49:45;37.30;;;27.00;;
1436;SDS011;712;51.026;13.792;2022-11-20T22:52:10;34.85;;;26.77;;
1436;SDS011;712;51.026;13.792;2022-11-20T22:54:35;35.50;;;27.57;;
1436;SDS011;712;51.026;13.792;2022-11-20T22:57:00;39.00;;;27.10;;
1436;SDS011;712;51.026;13.792;2022-11-20T22:59:25;37.90;;;28.67;;
1436;SDS011;712;51.026;13.792;2022-11-20T23:01:50;39.17;;;29.63;;
1436;SDS011;712;51.026;13.792;2022-11-20T23:04:16;36.47;;;26.97;;
1436;SDS011;712;51.026;13.792;2022-11-20T23:06:41;39.93;;;29.93;;
1436;SDS011;712;51.026;13.792;2022-11-20T23:09:06;41.57;;;31.77;;
1436;SDS011;712;51.026;13.792;2022-11-20T23:11:32;44.43;;;30.17;;
1436;SDS011;712;51.026;13.792;2022-11-20T23:13:58;40.47;;;31.00;;
1436;SDS011;712;51.026;13.792;2022-11-20T23:16:24;43.13;;;33.63;;
1436;SDS011;712;51.026;13.792;2022-11-20T23:18:54;41.93;;;30.73;;
1436;SDS011;712;51.026;13.792;2022-11-20T23:21:19;42.90;;;31.53;;
1436;SDS011;712;51.026;13.792;2022-11-20T23:23:48;39.43;;;29.63;;
1436;SDS011;712;51.026;13.792;2022-11-20T23:26:14;44.57;;;33.30;;
1436;SDS011;712;51.026;13.792;2022-11-20T23:28:41;42.73;;;33.20;;
1436;SDS011;712;51.026;13.792;2022-11-20T23:31:06;42.77;;;33.13;;
1436;SDS011;712;51.026;13.792;2022-11-20T23:33:35;43.57;;;35.03;;
1436;SDS011;712;51.026;13.792;2022-11-20T23:36:00;43.13;;;33.77;;
1436;SDS011;712;51.026;13.792;2022-11-20T23:38:26;40.30;;;31.07;;
1436;SDS011;712;51.026;13.792;2022-11-20T23:40:51;46.03;;;34.47;;
1436;SDS011;712;51.026;13.792;2022-11-20T23:43:16;45.30;;;35.13;;
1436;SDS011;712;51.026;13.792;2022-11-20T23:45:43;47.27;;;34.03;;
1436;SDS011;712;51.026;13.792;2022-11-20T23:48:08;45.77;;;34.30;;
1436;SDS011;712;51.026;13.792;2022-11-20T23:50:34;46.70;;;35.67;;
1436;SDS011;712;51.026;13.792;2022-11-20T23:52:59;45.47;;;32.13;;
1436;SDS011;712;51.026;13.792;2022-11-20T23:55:24;45.47;;;36.70;;
1436;SDS011;712;51.026;13.792;2022-11-20T23:57:49;41.40;;;32.57;;
